sensor_id;sensor_type;location;lat;lon;timestamp;pressure;altitude;pressure_sealevel;temperature;humidity
44140;BME280;29803;51.048;4.686;2022-12-08T00:00:29;101245.66;;;3.26;100.00
44140;BME280;29803;51.048;4.686;2022-12-08T00:02:59;101246.53;;;3.26;100.00
44140;BME280;29803;51.048;4.686;2022-12-08T00:05:29;101235.06;;;3.26;100.00
44140;BME280;29803;51.048;4.686;2022-12-08T00:08:18;101241.31;;;3.25;100.00
44140;BME280;29803;51.048;4.686;2022-12-08T00:11:14;101242.09;;;3.27;100.00
44140;BME280;29803;51.048;4.686;2022-12-08T00:13:45;101229.03;;;3.24;100.00
44140;BME280;29803;51.048;4.686;2022-12-08T00:16:15;101219.28;;;3.24;100.00
44140;BME280;29803;51.048;4.686;2022-12-08T00:18:46;101218.31;;;3.25;100.00
44140;BME280;29803;51.048;4.686;2022-12-08T00:21:16;101210.59;;;3.22;100.00
44140;BME280;29803;51.048;4.686;2022-12-08T00:23:47;101207.09;;;3.22;100.00
44140;BME280;29803;51.048;4.686;2022-12-08T00:26:17;101202.63;;;3.22;100.00
44140;BME280;29803;51.048;4.686;2022-12-08T00:28:48;101192.03;;;3.22;100.00
44140;BME280;29803;51.048;4.686;2022-12-08T00:31:18;101192.03;;;3.22;100.00
44140;BME280;29803;51.048;4.686;2022-12-08T00:33:49;101183.22;;;3.22;100.00
44140;BME280;29803;51.048;4.686;2022-12-08T00:36:19;101184.81;;;3.24;100.00
44140;BME280;29803;51.048;4.686;2022-12-08T00:38:49;101186.72;;;3.22;100.00
44140;BME280;29803;51.048;4.686;2022-12-08T00:41:22;101183.97;;;3.24;100.00
44140;BME280;29803;51.048;4.686;2022-12-08T00:44:14;101187.44;;;3.24;100.00
44140;BME280;29803;51.048;4.686;2022-12-08T00:46:45;101177.69;;;3.25;100.00
44140;BME280;29803;51.048;4.686;2022-12-08T00:49:16;101181.19;;;3.25;100.00
44140;BME280;29803;51.048;4.686;2022-12-08T00:51:47;101176.63;;;3.27;100.00
44140;BME280;29803;51.048;4.686;2022-12-08T00:54:18;101171.34;;;3.27;100.00
44140;BME280;29803;51.048;4.686;2022-12-08T00:56:49;101169.53;;;3.28;100.00
44140;BME280;29803;51.048;4.686;2022-12-08T00:59:19;101174.06;;;3.26;100.00
44140;BME280;29803;51.048;4.686;2022-12-08T01:01:50;101182.91;;;3.26;100.00
44140;BME280;29803;51.048;4.686;2022-12-08T01:04:21;101169.72;;;3.25;100.00
44140;BME280;29803;51.048;4.686;2022-12-08T01:06:51;101163.59;;;3.24;100.00
44140;BME280;29803;51.048;4.686;2022-12-08T01:09:22;101177.06;;;3.21;100.00
44140;BME280;29803;51.048;4.686;2022-12-08T01:11:52;101168.16;;;3.22;100.00
44140;BME280;29803;51.048;4.686;2022-12-08T01:14:23;101164.88;;;3.19;100.00
44140;BME280;29803;51.048;4.686;2022-12-08T01:16:53;101165.94;;;3.16;100.00
44140;BME280;29803;51.048;4.686;2022-12-08T01:19:24;101159.91;;;3.14;100.00
44140;BME280;29803;51.048;4.686;2022-12-08T01:21:54;101158.09;;;3.15;100.00
44140;BME280;29803;51.048;4.686;2022-12-08T01:24:24;101148.56;;;3.12;100.00
44140;BME280;29803;51.048;4.686;2022-12-08T01:26:55;101148.78;;;3.09;100.00
44140;BME280;29803;51.048;4.686;2022-12-08T01:29:26;101152.59;;;3.05;100.00
44140;BME280;29803;51.048;4.686;2022-12-08T01:31:57;101148.41;;;3.02;100.00
44140;BME280;29803;51.048;4.686;2022-12-08T01:34:27;101148.59;;;2.99;100.00
44140;BME280;29803;51.048;4.686;2022-12-08T01:36:57;101153.38;;;2.94;100.00
44140;BME280;29803;51.048;4.686;2022-12-08T01:39:28;101149.03;;;2.93;100.00
44140;BME280;29803;51.048;4.686;2022-12-08T01:41:59;101152.66;;;2.92;100.00
44140;BME280;29803;51.048;4.686;2022-12-08T01:47:03;101150.34;;;2.88;100.00
44140;BME280;29803;51.048;4.686;2022-12-08T01:49:35;101151.31;;;2.87;100.00
44140;BME280;29803;51.048;4.686;2022-12-08T01:52:22;101150.34;;;2.88;100.00
44140;BME280;29803;51.048;4.686;2022-12-08T01:54:59;101148.75;;;2.85;100.00
44140;BME280;29803;51.048;4.686;2022-12-08T01:57:43;101141.03;;;2.82;100.00
44140;BME280;29803;51.048;4.686;2022-12-08T02:00:17;101140.78;;;2.85;100.00
44140;BME280;29803;51.048;4.686;2022-12-08T02:02:56;101143.75;;;2.80;100.00
44140;BME280;29803;51.048;4.686;2022-12-08T02:05:30;101142.19;;;2.78;100.00
44140;BME280;29803;51.048;4.686;2022-12-08T02:08:07;101136.78;;;2.79;100.00
44140;BME280;29803;51.048;4.686;2022-12-08T02:10:40;101134.00;;;2.81;100.00
44140;BME280;29803;51.048;4.686;2022-12-08T02:13:15;101132.56;;;2.77;100.00
44140;BME280;29803;51.048;4.686;2022-12-08T02:16:01;101126.50;;;2.75;100.00
44140;BME280;29803;51.048;4.686;2022-12-08T02:18:50;101129.16;;;2.75;100.00
44140;BME280;29803;51.048;4.686;2022-12-08T02:21:40;101133.84;;;2.71;100.00
44140;BME280;29803;51.048;4.686;2022-12-08T02:27:27;101132.69;;;2.63;100.00
44140;BME280;29803;51.048;4.686;2022-12-08T02:30:24;101127.06;;;2.67;100.00
44140;BME280;29803;51.048;4.686;2022-12-08T02:38:09;101128.03;;;2.66;100.00
44140;BME280;29803;51.048;4.686;2022-12-08T02:41:11;101132.56;;;2.64;100.00
44140;BME280;29803;51.048;4.686;2022-12-08T02:43:47;101118.59;;;2.62;100.00
44140;BME280;29803;51.048;4.686;2022-12-08T02:46:27;101119.44;;;2.63;100.00
44140;BME280;29803;51.048;4.686;2022-12-08T02:49:00;101121.31;;;2.60;100.00
44140;BME280;29803;51.048;4.686;2022-12-08T02:51:31;101113.81;;;2.54;100.00
44140;BME280;29803;51.048;4.686;2022-12-08T02:54:02;101109.94;;;2.47;100.00
44140;BME280;29803;51.048;4.686;2022-12-08T03:00:04;101105.38;;;2.24;100.00
44140;BME280;29803;51.048;4.686;2022-12-08T03:02:41;101104.13;;;2.17;100.00
44140;BME280;29803;51.048;4.686;2022-12-08T03:08:21;101086.41;;;2.04;100.00
44140;BME280;29803;51.048;4.686;2022-12-08T03:11:08;101090.22;;;2.00;100.00
44140;BME280;29803;51.048;4.686;2022-12-08T03:13:44;101083.16;;;2.01;100.00
44140;BME280;29803;51.048;4.686;2022-12-08T03:16:19;101083.69;;;2.06;100.00
44140;BME280;29803;51.048;4.686;2022-12-08T03:19:06;101076.38;;;2.10;100.00
44140;BME280;29803;51.048;4.686;2022-12-08T03:21:40;101067.81;;;2.06;100.00
44140;BME280;29803;51.048;4.686;2022-12-08T03:24:14;101071.19;;;2.08;100.00
44140;BME280;29803;51.048;4.686;2022-12-08T03:26:49;101063.56;;;2.03;100.00
44140;BME280;29803;51.048;4.686;2022-12-08T03:29:21;101048.00;;;1.99;100.00
44140;BME280;29803;51.048;4.686;2022-12-08T03:31:58;101047.34;;;1.95;100.00
44140;BME280;29803;51.048;4.686;2022-12-08T03:34:33;101050.13;;;1.94;100.00
44140;BME280;29803;51.048;4.686;2022-12-08T03:37:05;101035.31;;;1.91;100.00
44140;BME280;29803;51.048;4.686;2022-12-08T03:39:35;101032.66;;;1.91;100.00
44140;BME280;29803;51.048;4.686;2022-12-08T03:42:05;101028.22;;;1.92;100.00
44140;BME280;29803;51.048;4.686;2022-12-08T03:44:36;101034.56;;;1.89;100.00
44140;BME280;29803;51.048;4.686;2022-12-08T03:47:07;101032.13;;;1.86;100.00
44140;BME280;29803;51.048;4.686;2022-12-08T03:49:37;101037.44;;;1.86;100.00
44140;BME280;29803;51.048;4.686;2022-12-08T03:52:08;101042.06;;;1.83;100.00
44140;BME280;29803;51.048;4.686;2022-12-08T03:54:38;101037.50;;;1.85;100.00
44140;BME280;29803;51.048;4.686;2022-12-08T03:57:09;101042.81;;;1.85;100.00
44140;BME280;29803;51.048;4.686;2022-12-08T03:59:39;101038.34;;;1.85;100.00
44140;BME280;29803;51.048;4.686;2022-12-08T04:02:10;101032.47;;;1.81;100.00
44140;BME280;29803;51.048;4.686;2022-12-08T04:04:40;101027.88;;;1.84;100.00
44140;BME280;29803;51.048;4.686;2022-12-08T04:07:11;101029.56;;;1.85;100.00
44140;BME280;29803;51.048;4.686;2022-12-08T04:09:41;101032.03;;;1.88;100.00
44140;BME280;29803;51.048;4.686;2022-12-08T04:12:12;101018.56;;;1.91;100.00
44140;BME280;29803;51.048;4.686;2022-12-08T04:14:42;101013.06;;;1.94;100.00
44140;BME280;29803;51.048;4.686;2022-12-08T04:17:12;101014.56;;;1.98;100.00
44140;BME280;29803;51.048;4.686;2022-12-08T04:19:43;101007.16;;;2.03;100.00
44140;BME280;29803;51.048;4.686;2022-12-08T04:22:13;101022.59;;;2.09;100.00
44140;BME280;29803;51.048;4.686;2022-12-08T04:24:44;101019.81;;;2.11;100.00
44140;BME280;29803;51.048;4.686;2022-12-08T04:27:14;101011.47;;;2.17;100.00
44140;BME280;29803;51.048;4.686;2022-12-08T04:29:44;101013.03;;;2.19;100.00
44140;BME280;29803;51.048;4.686;2022-12-08T04:32:15;101014.66;;;2.22;100.00
44140;BME280;29803;51.048;4.686;2022-12-08T04:34:45;101015.38;;;2.24;100.00
44140;BME280;29803;51.048;4.686;2022-12-08T04:37:16;101009.63;;;2.30;100.00
44140;BME280;29803;51.048;4.686;2022-12-08T04:39:46;101013.13;;;2.30;100.00
44140;BME280;29803;51.048;4.686;2022-12-08T04:42:16;101007.75;;;2.32;100.00
44140;BME280;29803;51.048;4.686;2022-12-08T04:44:47;101004.00;;;2.34;100.00
44140;BME280;29803;51.048;4.686;2022-12-08T04:47:17;100997.88;;;2.34;100.00
44140;BME280;29803;51.048;4.686;2022-12-08T04:49:49;101001.28;;;2.36;100.00
44140;BME280;29803;51.048;4.686;2022-12-08T04:52:20;101003.06;;;2.36;100.00
44140;BME280;29803;51.048;4.686;2022-12-08T04:54:50;101007.41;;;2.37;100.00
44140;BME280;29803;51.048;4.686;2022-12-08T04:57:21;101000.41;;;2.36;100.00
44140;BME280;29803;51.048;4.686;2022-12-08T04:59:52;100993.34;;;2.36;100.00
44140;BME280;29803;51.048;4.686;2022-12-08T05:02:22;101001.88;;;2.40;100.00
44140;BME280;29803;51.048;4.686;2022-12-08T05:04:52;101005.50;;;2.39;100.00
44140;BME280;29803;51.048;4.686;2022-12-08T05:07:23;100991.41;;;2.38;100.00
44140;BME280;29803;51.048;4.686;2022-12-08T05:09:53;100992.38;;;2.37;100.00
44140;BME280;29803;51.048;4.686;2022-12-08T05:12:24;101005.69;;;2.36;100.00
44140;BME280;29803;51.048;4.686;2022-12-08T05:14:54;100989.59;;;2.39;100.00
44140;BME280;29803;51.048;4.686;2022-12-08T05:17:25;101003.56;;;2.41;100.00
44140;BME280;29803;51.048;4.686;2022-12-08T05:19:55;100987.69;;;2.41;100.00
44140;BME280;29803;51.048;4.686;2022-12-08T05:22:25;100990.13;;;2.44;100.00
44140;BME280;29803;51.048;4.686;2022-12-08T05:24:56;100986.41;;;2.46;100.00
44140;BME280;29803;51.048;4.686;2022-12-08T05:27:26;100998.25;;;2.53;100.00
44140;BME280;29803;51.048;4.686;2022-12-08T05:29:57;100989.13;;;2.57;100.00
44140;BME280;29803;51.048;4.686;2022-12-08T05:32:27;100985.50;;;2.58;100.00
44140;BME280;29803;51.048;4.686;2022-12-08T05:34:58;100985.50;;;2.58;100.00
44140;BME280;29803;51.048;4.686;2022-12-08T05:37:28;100976.94;;;2.55;100.00
44140;BME280;29803;51.048;4.686;2022-12-08T05:39:59;100984.28;;;2.51;100.00
44140;BME280;29803;51.048;4.686;2022-12-08T05:42:29;100980.03;;;2.49;100.00
44140;BME280;29803;51.048;4.686;2022-12-08T05:45:00;100967.00;;;2.46;100.00
44140;BME280;29803;51.048;4.686;2022-12-08T05:47:30;100966.16;;;2.45;100.00
44140;BME280;29803;51.048;4.686;2022-12-08T05:50:01;100973.38;;;2.43;100.00
44140;BME280;29803;51.048;4.686;2022-12-08T05:52:31;100972.53;;;2.43;100.00
44140;BME280;29803;51.048;4.686;2022-12-08T05:55:02;100977.97;;;2.41;100.00
44140;BME280;29803;51.048;4.686;2022-12-08T05:57:33;100969.25;;;2.39;100.00
44140;BME280;29803;51.048;4.686;2022-12-08T06:00:04;100966.22;;;2.32;100.00
44140;BME280;29803;51.048;4.686;2022-12-08T06:02:34;100970.75;;;2.30;100.00
44140;BME280;29803;51.048;4.686;2022-12-08T06:05:05;100963.78;;;2.29;100.00
44140;BME280;29803;51.048;4.686;2022-12-08T06:07:36;100966.44;;;2.29;100.00
44140;BME280;29803;51.048;4.686;2022-12-08T06:10:07;100967.41;;;2.28;100.00
44140;BME280;29803;51.048;4.686;2022-12-08T06:12:37;100965.06;;;2.24;100.00
44140;BME280;29803;51.048;4.686;2022-12-08T06:15:08;100975.25;;;2.17;100.00
44140;BME280;29803;51.048;4.686;2022-12-08T06:17:39;100966.56;;;2.15;100.00
44140;BME280;29803;51.048;4.686;2022-12-08T06:20:10;100964.03;;;2.14;100.00
44140;BME280;29803;51.048;4.686;2022-12-08T06:22:40;100965.97;;;2.12;100.00
44140;BME280;29803;51.048;4.686;2022-12-08T06:25:11;100967.84;;;2.10;100.00
44140;BME280;29803;51.048;4.686;2022-12-08T06:27:42;100967.25;;;2.06;100.00
44140;BME280;29803;51.048;4.686;2022-12-08T06:30:12;100962.16;;;2.03;100.00
44140;BME280;29803;51.048;4.686;2022-12-08T06:32:43;100960.69;;;1.99;100.00
44140;BME280;29803;51.048;4.686;2022-12-08T06:35:13;100953.38;;;2.02;100.00
44140;BME280;29803;51.048;4.686;2022-12-08T06:37:44;100952.63;;;2.00;100.00
44140;BME280;29803;51.048;4.686;2022-12-08T06:40:14;100950.84;;;2.01;100.00
44140;BME280;29803;51.048;4.686;2022-12-08T06:42:45;100948.19;;;2.01;100.00
44140;BME280;29803;51.048;4.686;2022-12-08T06:45:18;100956.34;;;1.98;100.00
44140;BME280;29803;51.048;4.686;2022-12-08T06:47:48;100952.22;;;1.94;100.00
44140;BME280;29803;51.048;4.686;2022-12-08T06:50:19;100957.72;;;1.91;100.00
44140;BME280;29803;51.048;4.686;2022-12-08T06:52:49;100960.47;;;1.89;100.00
44140;BME280;29803;51.048;4.686;2022-12-08T06:55:20;100954.22;;;1.90;100.00
44140;BME280;29803;51.048;4.686;2022-12-08T06:57:52;100956.16;;;1.88;100.00
44140;BME280;29803;51.048;4.686;2022-12-08T07:00:22;100958.59;;;1.91;100.00
44140;BME280;29803;51.048;4.686;2022-12-08T07:02:53;100961.13;;;1.93;100.00
44140;BME280;29803;51.048;4.686;2022-12-08T07:05:23;100954.03;;;1.93;100.00
44140;BME280;29803;51.048;4.686;2022-12-08T07:07:53;100948.84;;;1.92;100.00
44140;BME280;29803;51.048;4.686;2022-12-08T07:10:24;100957.72;;;1.91;100.00
44140;BME280;29803;51.048;4.686;2022-12-08T07:12:55;100957.81;;;1.89;100.00
44140;BME280;29803;51.048;4.686;2022-12-08T07:15:25;100962.69;;;1.95;100.00
44140;BME280;29803;51.048;4.686;2022-12-08T07:17:56;100958.34;;;1.94;100.00
44140;BME280;29803;51.048;4.686;2022-12-08T07:20:26;100960.91;;;1.96;100.00
44140;BME280;29803;51.048;4.686;2022-12-08T07:22:57;100959.19;;;1.95;100.00
44140;BME280;29803;51.048;4.686;2022-12-08T07:25:28;100958.88;;;1.99;100.00
44140;BME280;29803;51.048;4.686;2022-12-08T07:27:59;100950.09;;;1.99;100.00
44140;BME280;29803;51.048;4.686;2022-12-08T07:30:29;100950.63;;;2.04;100.00
44140;BME280;29803;51.048;4.686;2022-12-08T07:33:02;100950.50;;;2.05;100.00
44140;BME280;29803;51.048;4.686;2022-12-08T07:35:33;100955.69;;;2.07;100.00
44140;BME280;29803;51.048;4.686;2022-12-08T07:38:04;100945.72;;;2.11;100.00
44140;BME280;29803;51.048;4.686;2022-12-08T07:40:34;100944.88;;;2.10;100.00
44140;BME280;29803;51.048;4.686;2022-12-08T07:43:05;100936.09;;;2.10;100.00
44140;BME280;29803;51.048;4.686;2022-12-08T07:45:36;100942.22;;;2.10;100.00
44140;BME280;29803;51.048;4.686;2022-12-08T07:48:06;100937.91;;;2.09;100.00
44140;BME280;29803;51.048;4.686;2022-12-08T07:50:37;100946.69;;;2.10;100.00
44140;BME280;29803;51.048;4.686;2022-12-08T07:53:09;100958.22;;;2.08;100.00
44140;BME280;29803;51.048;4.686;2022-12-08T07:55:43;100958.09;;;2.10;100.00
44140;BME280;29803;51.048;4.686;2022-12-08T07:58:13;100946.59;;;2.11;100.00
44140;BME280;29803;51.048;4.686;2022-12-08T08:00:44;100941.91;;;2.15;100.00
44140;BME280;29803;51.048;4.686;2022-12-08T08:03:14;100941.91;;;2.15;100.00
44140;BME280;29803;51.048;4.686;2022-12-08T08:05:45;100942.88;;;2.14;100.00
44140;BME280;29803;51.048;4.686;2022-12-08T08:08:17;100943.94;;;2.11;100.00
44140;BME280;29803;51.048;4.686;2022-12-08T08:10:47;100942.97;;;2.12;100.00
44140;BME280;29803;51.048;4.686;2022-12-08T08:13:18;100944.47;;;2.16;100.00
44140;BME280;29803;51.048;4.686;2022-12-08T08:15:48;100947.09;;;2.16;100.00
44140;BME280;29803;51.048;4.686;2022-12-08T08:18:19;100945.19;;;2.18;100.00
44140;BME280;29803;51.048;4.686;2022-12-08T08:20:49;100939.88;;;2.18;100.00
44140;BME280;29803;51.048;4.686;2022-12-08T08:23:20;100936.06;;;2.22;100.00
44140;BME280;29803;51.048;4.686;2022-12-08T08:25:50;100942.94;;;2.25;100.00
44140;BME280;29803;51.048;4.686;2022-12-08T08:28:21;100944.53;;;2.27;100.00
44140;BME280;29803;51.048;4.686;2022-12-08T08:30:51;100934.44;;;2.32;100.00
44140;BME280;29803;51.048;4.686;2022-12-08T08:33:22;100937.56;;;2.26;100.00
44140;BME280;29803;51.048;4.686;2022-12-08T08:35:53;100942.50;;;2.31;100.00
44140;BME280;29803;51.048;4.686;2022-12-08T08:38:24;100937.31;;;2.29;100.00
44140;BME280;29803;51.048;4.686;2022-12-08T08:40:55;100932.84;;;2.30;100.00
44140;BME280;29803;51.048;4.686;2022-12-08T08:43:25;100938.16;;;2.30;100.00
44140;BME280;29803;51.048;4.686;2022-12-08T08:45:59;100936.47;;;2.29;100.00
44140;BME280;29803;51.048;4.686;2022-12-08T08:48:30;100932.78;;;2.31;100.00
44140;BME280;29803;51.048;4.686;2022-12-08T08:51:12;100937.81;;;2.34;100.00
44140;BME280;29803;51.048;4.686;2022-12-08T08:53:43;100933.16;;;2.38;100.00
44140;BME280;29803;51.048;4.686;2022-12-08T08:56:15;100934.97;;;2.38;100.00
44140;BME280;29803;51.048;4.686;2022-12-08T08:58:49;100921.47;;;2.41;100.00
44140;BME280;29803;51.048;4.686;2022-12-08T09:01:25;100925.94;;;2.40;100.00
44140;BME280;29803;51.048;4.686;2022-12-08T09:03:56;100923.19;;;2.42;100.00
44140;BME280;29803;51.048;4.686;2022-12-08T09:06:27;100934.84;;;2.39;100.00
44140;BME280;29803;51.048;4.686;2022-12-08T09:08:57;100930.31;;;2.41;100.00
44140;BME280;29803;51.048;4.686;2022-12-08T09:11:28;100930.06;;;2.44;100.00
44140;BME280;29803;51.048;4.686;2022-12-08T09:13:58;100922.75;;;2.48;100.00
44140;BME280;29803;51.048;4.686;2022-12-08T09:16:29;100928.66;;;2.51;100.00
44140;BME280;29803;51.048;4.686;2022-12-08T09:18:59;100928.44;;;2.54;100.00
44140;BME280;29803;51.048;4.686;2022-12-08T09:21:31;100920.25;;;2.57;100.00
44140;BME280;29803;51.048;4.686;2022-12-08T09:24:02;100926.91;;;2.63;100.00
44140;BME280;29803;51.048;4.686;2022-12-08T09:26:32;100928.59;;;2.64;100.00
44140;BME280;29803;51.048;4.686;2022-12-08T09:29:03;100931.03;;;2.67;100.00
44140;BME280;29803;51.048;4.686;2022-12-08T09:31:33;100926.25;;;2.72;100.00
44140;BME280;29803;51.048;4.686;2022-12-08T09:34:04;100933.00;;;2.76;100.00
44140;BME280;29803;51.048;4.686;2022-12-08T09:36:34;100926.63;;;2.79;100.00
44140;BME280;29803;51.048;4.686;2022-12-08T09:39:05;100930.59;;;2.84;100.00
44140;BME280;29803;51.048;4.686;2022-12-08T09:41:43;100924.84;;;2.91;100.00
44140;BME280;29803;51.048;4.686;2022-12-08T09:53:11;100920.50;;;3.25;100.00
44140;BME280;29803;51.048;4.686;2022-12-08T09:55:48;100912.94;;;3.31;100.00
44140;BME280;29803;51.048;4.686;2022-12-08T09:58:46;100909.19;;;3.34;100.00
44140;BME280;29803;51.048;4.686;2022-12-08T10:01:22;100902.56;;;3.40;100.00
44140;BME280;29803;51.048;4.686;2022-12-08T10:03:56;100904.00;;;3.44;100.00
44140;BME280;29803;51.048;4.686;2022-12-08T10:06:39;100906.78;;;3.42;100.00
44140;BME280;29803;51.048;4.686;2022-12-08T10:12:35;100917.00;;;3.24;100.00
44140;BME280;29803;51.048;4.686;2022-12-08T10:18:11;100907.91;;;3.04;100.00
44140;BME280;29803;51.048;4.686;2022-12-08T10:20:45;100907.53;;;2.98;100.00
44140;BME280;29803;51.048;4.686;2022-12-08T10:26:01;100911.00;;;2.87;100.00
44140;BME280;29803;51.048;4.686;2022-12-08T10:28:33;100901.31;;;2.75;100.00
44140;BME280;29803;51.048;4.686;2022-12-08T10:31:03;100904.28;;;2.70;100.00
44140;BME280;29803;51.048;4.686;2022-12-08T10:33:34;100906.38;;;2.78;100.00
44140;BME280;29803;51.048;4.686;2022-12-08T10:36:04;100893.53;;;2.96;100.00
44140;BME280;29803;51.048;4.686;2022-12-08T10:38:37;100884.47;;;3.22;100.00
44140;BME280;29803;51.048;4.686;2022-12-08T10:43:43;100870.50;;;3.65;100.00
44140;BME280;29803;51.048;4.686;2022-12-08T10:46:19;100872.91;;;3.79;100.00
44140;BME280;29803;51.048;4.686;2022-12-08T10:48:56;100870.84;;;3.94;100.00
44140;BME280;29803;51.048;4.686;2022-12-08T10:51:40;100866.47;;;4.04;100.00
44140;BME280;29803;51.048;4.686;2022-12-08T10:54:37;100872.69;;;4.26;100.00
44140;BME280;29803;51.048;4.686;2022-12-08T10:57:19;100868.50;;;4.55;100.00
44140;BME280;29803;51.048;4.686;2022-12-08T10:59:53;100861.00;;;4.81;100.00
44140;BME280;29803;51.048;4.686;2022-12-08T11:02:25;100853.56;;;4.96;100.00
44140;BME280;29803;51.048;4.686;2022-12-08T11:04:57;100857.66;;;5.00;100.00
44140;BME280;29803;51.048;4.686;2022-12-08T11:07:30;100851.25;;;5.03;100.00
44140;BME280;29803;51.048;4.686;2022-12-08T11:10:01;100852.72;;;4.96;100.00
44140;BME280;29803;51.048;4.686;2022-12-08T11:12:31;100849.81;;;4.99;100.00
44140;BME280;29803;51.048;4.686;2022-12-08T11:15:02;100849.16;;;4.85;100.00
44140;BME280;29803;51.048;4.686;2022-12-08T11:17:36;100850.72;;;4.67;100.00
44140;BME280;29803;51.048;4.686;2022-12-08T11:22:44;100843.03;;;4.53;100.00
44140;BME280;29803;51.048;4.686;2022-12-08T11:25:21;100844.13;;;4.50;100.00
44140;BME280;29803;51.048;4.686;2022-12-08T11:27:55;100843.66;;;4.45;100.00
44140;BME280;29803;51.048;4.686;2022-12-08T11:30:35;100833.41;;;4.40;100.00
44140;BME280;29803;51.048;4.686;2022-12-08T11:33:24;100835.22;;;4.40;100.00
44140;BME280;29803;51.048;4.686;2022-12-08T11:36:03;100830.19;;;4.37;100.00
44140;BME280;29803;51.048;4.686;2022-12-08T11:38:40;100831.66;;;4.30;100.00
44140;BME280;29803;51.048;4.686;2022-12-08T11:41:15;100830.22;;;4.26;100.00
44140;BME280;29803;51.048;4.686;2022-12-08T11:44:34;100833.59;;;4.16;100.00
44140;BME280;29803;51.048;4.686;2022-12-08T11:47:18;100826.88;;;4.12;100.00
44140;BME280;29803;51.048;4.686;2022-12-08T11:50:00;100824.81;;;4.16;100.00
44140;BME280;29803;51.048;4.686;2022-12-08T11:52:39;100820.34;;;4.16;100.00
44140;BME280;29803;51.048;4.686;2022-12-08T11:57:44;100830.59;;;4.21;100.00
44140;BME280;29803;51.048;4.686;2022-12-08T12:00:15;100824.91;;;4.26;100.00
44140;BME280;29803;51.048;4.686;2022-12-08T12:02:57;100824.19;;;4.24;100.00
44140;BME280;29803;51.048;4.686;2022-12-08T12:05:38;100818.56;;;4.17;100.00
44140;BME280;29803;51.048;4.686;2022-12-08T12:17:45;100804.34;;;4.07;100.00
44140;BME280;29803;51.048;4.686;2022-12-08T12:20:24;100804.34;;;4.07;100.00
44140;BME280;29803;51.048;4.686;2022-12-08T12:25:36;100806.59;;;4.11;100.00
44140;BME280;29803;51.048;4.686;2022-12-08T12:28:10;100801.19;;;4.13;100.00
44140;BME280;29803;51.048;4.686;2022-12-08T12:30:58;100804.41;;;4.16;100.00
44140;BME280;29803;51.048;4.686;2022-12-08T12:33:30;100795.59;;;4.16;100.00
44140;BME280;29803;51.048;4.686;2022-12-08T12:36:03;100794.25;;;4.22;100.00
44140;BME280;29803;51.048;4.686;2022-12-08T12:38:52;100784.81;;;4.29;100.00
44140;BME280;29803;51.048;4.686;2022-12-08T12:41:35;100787.78;;;4.35;100.00
44140;BME280;29803;51.048;4.686;2022-12-08T12:50:04;100778.41;;;4.31;100.00
44140;BME280;29803;51.048;4.686;2022-12-08T12:52:36;100784.44;;;4.33;100.00
44140;BME280;29803;51.048;4.686;2022-12-08T12:57:54;100791.06;;;4.39;100.00
44140;BME280;29803;51.048;4.686;2022-12-08T13:00:26;100782.56;;;4.45;100.00
44140;BME280;29803;51.048;4.686;2022-12-08T13:02:57;100778.81;;;4.48;100.00
44140;BME280;29803;51.048;4.686;2022-12-08T13:05:29;100786.78;;;4.48;100.00
44140;BME280;29803;51.048;4.686;2022-12-08T13:08:06;100784.97;;;4.48;100.00
44140;BME280;29803;51.048;4.686;2022-12-08T13:10:39;100777.72;;;4.50;100.00
44140;BME280;29803;51.048;4.686;2022-12-08T13:13:17;100785.69;;;4.50;100.00
44140;BME280;29803;51.048;4.686;2022-12-08T13:15:52;100785.09;;;4.47;100.00
44140;BME280;29803;51.048;4.686;2022-12-08T13:18:28;100774.06;;;4.51;100.00
44140;BME280;29803;51.048;4.686;2022-12-08T13:21:09;100775.19;;;4.49;100.00
44140;BME280;29803;51.048;4.686;2022-12-08T13:26:17;100765.66;;;4.46;100.00
44140;BME280;29803;51.048;4.686;2022-12-08T13:34:55;100760.78;;;4.30;100.00
44140;BME280;29803;51.048;4.686;2022-12-08T13:37:43;100761.06;;;4.27;100.00
44140;BME280;29803;51.048;4.686;2022-12-08T13:40:17;100759.34;;;4.26;100.00
44140;BME280;29803;51.048;4.686;2022-12-08T13:43:02;100766.69;;;4.34;100.00
44140;BME280;29803;51.048;4.686;2022-12-08T13:45:35;100768.00;;;4.07;100.00
44140;BME280;29803;51.048;4.686;2022-12-08T13:51:41;100771.06;;;3.37;100.00
44140;BME280;29803;51.048;4.686;2022-12-08T13:56:40;100778.25;;;2.90;100.00
44140;BME280;29803;51.048;4.686;2022-12-08T14:01:48;100771.94;;;2.57;100.00
44140;BME280;29803;51.048;4.686;2022-12-08T14:04:22;100781.09;;;2.53;100.00
44140;BME280;29803;51.048;4.686;2022-12-08T14:07:00;100779.75;;;2.48;100.00
44140;BME280;29803;51.048;4.686;2022-12-08T14:09:35;100770.97;;;2.47;100.00
44140;BME280;29803;51.048;4.686;2022-12-08T14:12:24;100783.22;;;2.48;100.00
44140;BME280;29803;51.048;4.686;2022-12-08T14:15:04;100793.69;;;2.50;100.00
44140;BME280;29803;51.048;4.686;2022-12-08T14:17:38;100792.72;;;2.51;100.00
44140;BME280;29803;51.048;4.686;2022-12-08T14:22:43;100793.59;;;2.51;100.00
44140;BME280;29803;51.048;4.686;2022-12-08T14:25:14;100796.25;;;2.51;100.00
44140;BME280;29803;51.048;4.686;2022-12-08T14:27:45;100789.03;;;2.53;100.00
44140;BME280;29803;51.048;4.686;2022-12-08T14:30:24;100791.69;;;2.53;100.00
44140;BME280;29803;51.048;4.686;2022-12-08T14:32:57;100795.50;;;2.49;100.00
44140;BME280;29803;51.048;4.686;2022-12-08T14:35:35;100783.44;;;2.45;100.00
44140;BME280;29803;51.048;4.686;2022-12-08T14:38:17;100791.66;;;2.42;100.00
44140;BME280;29803;51.048;4.686;2022-12-08T14:43:29;100783.44;;;2.45;100.00
44140;BME280;29803;51.048;4.686;2022-12-08T14:46:12;100781.31;;;2.50;100.00
44140;BME280;29803;51.048;4.686;2022-12-08T14:48:48;100769.88;;;2.50;100.00